createdAt,value
2018-06-15T00:01:37.340Z,58.67
2018-06-15T00:04:06.016Z,58.92
2018-06-15T00:06:36.509Z,59.02
2018-06-15T00:09:05.219Z,59.03
2018-06-15T00:11:34.333Z,58.15
2018-06-15T00:14:03.020Z,59.11
2018-06-15T00:16:31.752Z,58.30
2018-06-15T00:19:00.469Z,59.30
2018-06-15T00:21:29.195Z,57.86
2018-06-15T00:23:58.033Z,59.13
2018-06-15T00:26:26.738Z,58.12
2018-06-15T00:28:55.558Z,59.52
2018-06-15T00:31:24.326Z,59.96
2018-06-15T00:33:53.176Z,60.07
2018-06-15T00:36:22.027Z,60.43
2018-06-15T00:38:50.983Z,60.92
2018-06-15T00:41:20.305Z,60.73
2018-06-15T00:43:49.060Z,59.96
2018-06-15T00:46:17.810Z,59.27
2018-06-15T00:48:47.266Z,60.70
2018-06-15T00:51:15.982Z,60.93
2018-06-15T00:53:44.695Z,61.18
2018-06-15T00:56:14.224Z,61.28
2018-06-15T00:58:45.049Z,60.07
2018-06-15T01:01:13.903Z,60.98
2018-06-15T01:03:42.642Z,60.79
2018-06-15T01:06:11.882Z,61.69
2018-06-15T01:08:41.389Z,61.90
2018-06-15T01:11:09.742Z,61.96
2018-06-15T01:13:39.083Z,62.41
2018-06-15T01:16:08.822Z,60.81
2018-06-15T01:18:38.092Z,61.72
2018-06-15T01:21:07.447Z,62.10
2018-06-15T01:23:37.592Z,62.18
2018-06-15T01:26:08.023Z,62.25
2018-06-15T01:28:41.829Z,62.69
2018-06-15T01:31:13.331Z,62.81
2018-06-15T01:33:43.941Z,63.00
2018-06-15T01:36:13.321Z,63.25
2018-06-15T01:38:42.035Z,63.62
2018-06-15T01:41:11.163Z,63.48
2018-06-15T01:43:42.415Z,64.21
2018-06-15T01:46:12.636Z,64.25
2018-06-15T01:48:41.679Z,64.36
2018-06-15T01:51:10.505Z,64.33
2018-06-15T01:53:39.647Z,64.85
2018-06-15T01:56:11.267Z,64.32
2018-06-15T01:58:40.966Z,64.76
2018-06-15T02:01:09.670Z,64.90
2018-06-15T02:03:38.470Z,65.12
2018-06-15T02:06:07.238Z,65.04
2018-06-15T02:08:36.025Z,65.14
2018-06-15T02:11:04.882Z,65.16
2018-06-15T02:13:33.631Z,65.48
2018-06-15T02:16:03.506Z,65.66
2018-06-15T02:18:32.582Z,65.76
2018-06-15T02:21:01.327Z,66.02
2018-06-15T02:23:30.151Z,66.15
2018-06-15T02:25:58.898Z,66.23
2018-06-15T02:28:27.681Z,64.68
2018-06-15T02:30:56.746Z,66.12
2018-06-15T02:33:25.575Z,66.27
2018-06-15T02:35:54.314Z,66.57
2018-06-15T02:38:23.075Z,66.60
2018-06-15T02:40:51.852Z,66.65
2018-06-15T02:43:20.669Z,66.87
2018-06-15T02:45:52.324Z,67.02
2018-06-15T02:48:21.109Z,67.57
2018-06-15T02:50:50.225Z,66.97
2018-06-15T02:53:19.010Z,67.16
2018-06-15T02:55:47.989Z,67.13
2018-06-15T02:58:16.749Z,68.53
2018-06-15T03:00:45.477Z,67.21
2018-06-15T03:03:14.644Z,67.55
2018-06-15T03:05:43.411Z,67.16
2018-06-15T03:08:12.373Z,68.08
2018-06-15T03:10:41.583Z,67.77
2018-06-15T03:13:10.581Z,67.77
2018-06-15T03:15:51.217Z,67.88
2018-06-15T03:18:20.011Z,68.31
2018-06-15T03:20:50.543Z,68.24
2018-06-15T03:23:19.301Z,66.22
2018-06-15T03:25:51.426Z,67.64
2018-06-15T03:28:20.085Z,68.05
2018-06-15T03:30:49.040Z,67.54
2018-06-15T03:33:17.937Z,67.46
2018-06-15T03:35:46.695Z,67.27
2018-06-15T03:38:15.432Z,67.65
2018-06-15T03:40:44.225Z,67.13
2018-06-15T03:43:12.976Z,67.72
2018-06-15T03:45:41.767Z,67.95
2018-06-15T03:48:10.861Z,68.00
2018-06-15T03:50:39.673Z,68.39
2018-06-15T03:53:08.896Z,67.00
2018-06-15T03:55:37.671Z,65.84
2018-06-15T03:58:06.575Z,65.23
2018-06-15T04:00:35.838Z,66.96
2018-06-15T04:03:05.030Z,65.54
2018-06-15T04:05:34.795Z,67.18
2018-06-15T04:08:10.482Z,67.67
2018-06-15T04:10:40.422Z,67.69
2018-06-15T04:13:09.140Z,67.89
2018-06-15T04:15:37.915Z,67.66
2018-06-15T04:18:06.977Z,67.77
2018-06-15T04:20:35.904Z,67.83
2018-06-15T04:23:05.886Z,65.25
2018-06-15T04:25:34.777Z,66.67
2018-06-15T04:28:03.550Z,66.91
2018-06-15T04:30:32.318Z,66.97
2018-06-15T04:35:49.766Z,66.48
2018-06-15T04:38:18.747Z,66.76
2018-06-15T04:40:47.851Z,66.43
2018-06-15T04:43:16.953Z,62.92
2018-06-15T04:45:46.035Z,64.51
2018-06-15T04:48:15.295Z,63.99
2018-06-15T04:50:44.507Z,64.07
2018-06-15T04:53:13.676Z,63.68
2018-06-15T04:55:42.482Z,63.04
2018-06-15T04:58:11.400Z,62.94
2018-06-15T05:00:40.151Z,56.74
2018-06-15T05:03:09.263Z,58.19
2018-06-15T05:05:38.177Z,58.79
2018-06-15T05:08:06.950Z,58.32
2018-06-15T05:10:36.486Z,58.13
2018-06-15T05:13:05.521Z,58.25
2018-06-15T05:15:34.301Z,58.13
2018-06-15T05:18:03.779Z,57.28
2018-06-15T05:20:32.972Z,56.95
2018-06-15T05:23:07.913Z,56.37
2018-06-15T05:25:38.090Z,56.29
2018-06-15T05:28:18.239Z,56.62
2018-06-15T05:30:46.261Z,55.97
2018-06-15T05:33:25.179Z,51.17
2018-06-15T05:35:53.948Z,53.84
2018-06-15T05:38:24.762Z,54.41
2018-06-15T05:40:53.543Z,55.08
2018-06-15T05:43:22.473Z,54.96
2018-06-15T05:45:53.518Z,55.20
2018-06-15T05:48:22.295Z,51.91
2018-06-15T05:50:53.191Z,54.13
2018-06-15T05:53:21.903Z,54.69
2018-06-15T05:55:50.966Z,54.80
2018-06-15T05:58:19.748Z,54.86
2018-06-15T06:00:48.608Z,51.69
2018-06-15T06:03:17.690Z,53.67
2018-06-15T06:05:47.443Z,53.99
2018-06-15T06:08:16.480Z,54.17
2018-06-15T06:10:46.528Z,54.50
2018-06-15T06:13:15.403Z,54.61
2018-06-15T06:15:44.473Z,54.88
2018-06-15T06:18:15.511Z,54.84
2018-06-15T06:20:44.500Z,55.37
2018-06-15T06:23:14.844Z,55.07
2018-06-15T06:25:43.622Z,55.09
2018-06-15T06:28:12.421Z,54.35
2018-06-15T06:30:42.297Z,54.62
2018-06-15T06:33:11.372Z,54.65
2018-06-15T06:35:40.341Z,54.64
2018-06-15T06:38:09.747Z,54.57
2018-06-15T06:40:38.499Z,54.58
2018-06-15T06:43:07.611Z,54.35
2018-06-15T06:45:36.435Z,54.48
2018-06-15T06:48:05.173Z,54.50
2018-06-15T06:50:33.850Z,51.02
2018-06-15T06:53:02.562Z,53.26
2018-06-15T06:55:31.256Z,49.82
2018-06-15T06:58:00.396Z,52.09
2018-06-15T07:00:32.363Z,52.87
2018-06-15T07:03:01.640Z,53.08
2018-06-15T07:05:30.959Z,53.31
2018-06-15T07:07:59.854Z,53.10
2018-06-15T07:10:41.023Z,53.35
2018-06-15T07:13:09.785Z,53.59
2018-06-15T07:15:38.691Z,52.75
2018-06-15T07:18:07.404Z,52.56
2018-06-15T07:20:37.207Z,52.68
2018-06-15T07:23:05.829Z,52.89
2018-06-15T07:25:35.057Z,52.59
2018-06-15T07:28:04.045Z,52.07
2018-06-15T07:30:33.266Z,51.74
2018-06-15T07:33:04.760Z,52.06
2018-06-15T07:35:34.889Z,51.65
2018-06-15T07:38:03.783Z,51.37
2018-06-15T07:40:32.585Z,50.77
2018-06-15T07:43:01.296Z,50.12
2018-06-15T07:45:30.248Z,50.12
2018-06-15T07:47:59.272Z,49.36
2018-06-15T07:50:29.426Z,49.52
2018-06-15T07:52:58.276Z,49.28
2018-06-15T07:55:27.740Z,48.65
2018-06-15T07:57:58.018Z,48.46
2018-06-15T08:00:27.162Z,43.79
2018-06-15T08:03:00.255Z,46.66
2018-06-15T08:05:32.140Z,47.39
2018-06-15T08:08:01.042Z,47.36
2018-06-15T08:10:30.460Z,47.09
2018-06-15T08:12:59.339Z,46.96
2018-06-15T08:15:28.865Z,46.88
2018-06-15T08:18:02.163Z,46.99
2018-06-15T08:20:31.597Z,46.54
2018-06-15T08:23:01.008Z,46.46
2018-06-15T08:25:30.499Z,46.17
2018-06-15T08:27:59.485Z,42.08
2018-06-15T08:30:28.224Z,44.54
2018-06-15T08:32:56.946Z,44.45
2018-06-15T08:35:26.024Z,44.13
2018-06-15T08:37:54.902Z,44.58
2018-06-15T08:40:23.557Z,44.72
2018-06-15T08:42:52.324Z,44.66
2018-06-15T08:45:30.088Z,45.11
2018-06-15T08:48:01.788Z,44.88
2018-06-15T08:50:30.818Z,45.09
2018-06-15T08:53:01.320Z,40.12
2018-06-15T08:55:30.123Z,43.35
2018-06-15T08:57:59.045Z,44.03
2018-06-15T09:00:28.033Z,44.06
2018-06-15T09:03:00.705Z,44.27
2018-06-15T09:05:31.059Z,44.42
2018-06-15T09:08:01.735Z,44.11
2018-06-15T09:10:31.594Z,43.56
2018-06-15T09:13:00.645Z,44.33
2018-06-15T09:15:29.373Z,43.59
2018-06-15T09:17:59.814Z,43.61
2018-06-15T09:20:28.799Z,43.20
2018-06-15T09:22:58.206Z,43.29
2018-06-15T09:25:27.746Z,43.39
2018-06-15T09:28:02.348Z,43.40
2018-06-15T09:30:32.295Z,43.63
2018-06-15T09:33:01.019Z,43.34
2018-06-15T09:35:29.820Z,42.09
2018-06-15T09:37:58.847Z,42.07
2018-06-15T09:40:27.797Z,41.41
2018-06-15T09:42:56.947Z,41.15
2018-06-15T09:45:25.840Z,36.18
2018-06-15T09:47:55.124Z,35.42
2018-06-15T09:50:23.922Z,38.27
2018-06-15T09:52:53.028Z,38.38
2018-06-15T09:58:09.416Z,39.80
2018-06-15T10:00:38.314Z,40.18
2018-06-15T10:03:07.730Z,40.16
2018-06-15T10:05:36.636Z,40.51
2018-06-15T10:08:05.786Z,41.04
2018-06-15T10:10:34.859Z,41.38
2018-06-15T10:13:03.930Z,42.02
2018-06-15T10:15:32.736Z,42.55
2018-06-15T10:18:02.071Z,42.47
2018-06-15T10:20:30.784Z,42.62
2018-06-15T10:22:59.922Z,43.32
2018-06-15T10:25:28.768Z,43.79
2018-06-15T10:27:57.486Z,43.82
2018-06-15T10:30:26.185Z,44.07
2018-06-15T10:32:54.921Z,43.98
2018-06-15T10:35:23.941Z,43.46
2018-06-15T10:37:53.080Z,43.69
2018-06-15T10:40:21.793Z,43.92
2018-06-15T10:42:50.633Z,43.68
2018-06-15T10:45:19.687Z,43.36
2018-06-15T10:47:51.662Z,43.87
2018-06-15T10:50:20.682Z,43.93
2018-06-15T10:52:49.532Z,44.06
2018-06-15T10:55:18.221Z,44.33
2018-06-15T10:57:47.004Z,43.46
2018-06-15T11:00:16.251Z,43.13
2018-06-15T11:02:45.359Z,44.04
2018-06-15T11:05:14.227Z,41.04
2018-06-15T11:07:42.986Z,42.95
2018-06-15T11:10:12.237Z,43.51
2018-06-15T11:12:41.169Z,44.01
2018-06-15T11:15:10.025Z,43.95
2018-06-15T11:17:38.739Z,43.81
2018-06-15T11:20:07.438Z,43.56
2018-06-15T11:22:36.506Z,40.86
2018-06-15T11:25:05.131Z,40.08
2018-06-15T11:27:33.979Z,40.19
2018-06-15T11:30:02.736Z,42.84
2018-06-15T11:32:31.510Z,43.18
2018-06-15T11:35:00.236Z,44.04
2018-06-15T11:37:28.936Z,41.29
2018-06-15T11:39:57.654Z,40.84
2018-06-15T11:42:27.916Z,42.87
2018-06-15T11:44:56.665Z,43.79
2018-06-15T11:47:25.302Z,43.66
2018-06-15T11:49:54.043Z,43.87
2018-06-15T11:52:23.334Z,44.55
2018-06-15T11:54:52.121Z,44.97
2018-06-15T11:57:20.758Z,41.93
2018-06-15T11:59:49.487Z,44.01
2018-06-15T12:02:18.296Z,42.22
2018-06-15T12:04:48.561Z,43.12
2018-06-15T12:07:17.307Z,43.85
2018-06-15T12:09:46.011Z,43.56
2018-06-15T12:12:14.749Z,43.36
2018-06-15T12:14:43.499Z,40.58
2018-06-15T12:17:12.172Z,42.26
2018-06-15T12:19:41.040Z,42.57
2018-06-15T12:22:09.964Z,42.70
2018-06-15T12:24:38.832Z,43.10
2018-06-15T12:27:08.103Z,42.67
2018-06-15T12:29:37.793Z,39.97
2018-06-15T12:32:08.343Z,41.37
2018-06-15T12:34:35.650Z,41.54
2018-06-15T12:37:04.437Z,41.47
2018-06-15T12:39:33.163Z,36.81
2018-06-15T12:42:01.865Z,39.19
2018-06-15T12:44:30.627Z,39.31
2018-06-15T12:46:59.343Z,39.36
2018-06-15T12:49:28.043Z,40.12
2018-06-15T12:51:56.740Z,40.24
2018-06-15T12:54:25.563Z,40.10
2018-06-15T12:56:54.266Z,40.65
2018-06-15T12:59:22.977Z,40.07
2018-06-15T13:01:51.776Z,40.48
2018-06-15T13:04:20.517Z,40.62
2018-06-15T13:06:52.368Z,40.46
2018-06-15T13:09:21.175Z,40.51
2018-06-15T13:11:49.910Z,40.00
2018-06-15T13:14:18.603Z,37.13
2018-06-15T13:16:47.467Z,38.70
2018-06-15T13:19:16.241Z,38.09
2018-06-15T13:21:44.979Z,38.23
2018-06-15T13:24:13.657Z,37.74
2018-06-15T13:26:42.359Z,37.34
2018-06-15T13:29:11.129Z,38.02
2018-06-15T13:31:39.854Z,37.82
2018-06-15T13:34:08.593Z,37.41
2018-06-15T13:36:40.280Z,32.29
2018-06-15T13:39:09.127Z,34.73
2018-06-15T13:41:38.001Z,34.88
2018-06-15T13:44:06.747Z,34.71
2018-06-15T13:46:35.519Z,35.52
2018-06-15T13:49:04.206Z,35.56
2018-06-15T13:51:32.939Z,36.21
2018-06-15T13:54:04.914Z,36.33
2018-06-15T13:56:33.618Z,36.40
2018-06-15T13:59:02.354Z,36.92
2018-06-15T14:01:33.728Z,37.33
2018-06-15T14:04:02.464Z,37.87
2018-06-15T14:06:32.121Z,37.93
2018-06-15T14:09:01.062Z,38.05
2018-06-15T14:11:30.063Z,35.71
2018-06-15T14:16:46.269Z,38.53
2018-06-15T14:19:15.575Z,38.41
2018-06-15T14:21:44.291Z,38.08
2018-06-15T14:24:15.593Z,37.96
2018-06-15T14:26:44.666Z,37.68
2018-06-15T14:29:13.516Z,38.06
2018-06-15T14:31:42.212Z,38.51
2018-06-15T14:34:10.919Z,38.95
2018-06-15T14:36:39.607Z,39.29
2018-06-15T14:39:08.333Z,39.27
2018-06-15T14:41:37.097Z,39.63
2018-06-15T14:44:05.996Z,38.97
2018-06-15T14:46:34.735Z,38.96
2018-06-15T14:49:04.073Z,38.71
2018-06-15T14:51:32.847Z,39.16
2018-06-15T14:54:02.148Z,38.99
2018-06-15T14:56:30.909Z,37.75
2018-06-15T14:58:59.716Z,35.26
2018-06-15T15:01:28.358Z,34.32
2018-06-15T15:03:57.440Z,33.16
2018-06-15T15:06:26.597Z,32.38
2018-06-15T15:08:55.537Z,31.41
2018-06-15T15:11:24.494Z,31.17
2018-06-15T15:13:53.325Z,30.50
2018-06-15T15:19:09.700Z,25.00
2018-06-15T15:21:38.408Z,24.30
2018-06-15T15:24:07.074Z,27.09
2018-06-15T15:26:36.212Z,28.02
2018-06-15T15:29:05.435Z,27.78
2018-06-15T15:31:34.423Z,27.20
2018-06-15T15:34:03.814Z,26.91
2018-06-15T15:36:36.037Z,26.42
2018-06-15T15:39:06.798Z,25.53
2018-06-15T15:44:30.133Z,24.28
2018-06-15T15:47:00.928Z,25.22
2018-06-15T15:49:30.068Z,20.76
2018-06-15T15:54:46.434Z,25.00
2018-06-15T15:57:17.895Z,25.28
2018-06-15T15:59:46.655Z,25.65
2018-06-15T16:02:15.741Z,25.44
2018-06-15T16:04:44.396Z,22.15
2018-06-15T16:07:13.334Z,23.78
2018-06-15T16:09:42.246Z,24.40
2018-06-15T16:12:10.988Z,24.34
2018-06-15T16:14:39.779Z,24.43
2018-06-15T16:17:12.157Z,24.96
2018-06-15T16:19:43.034Z,25.08
2018-06-15T16:22:11.882Z,24.92
2018-06-15T16:24:40.761Z,25.41
2018-06-15T16:27:11.430Z,25.12
2018-06-15T16:29:41.305Z,21.35
2018-06-15T16:37:49.389Z,25.79
2018-06-15T16:40:21.689Z,25.77
2018-06-15T16:42:51.476Z,25.57
2018-06-15T16:45:20.757Z,25.18
2018-06-15T16:47:50.075Z,24.59
2018-06-15T16:53:08.324Z,23.86
2018-06-15T16:55:38.363Z,24.12
2018-06-15T16:58:07.835Z,23.89
2018-06-15T17:06:13.675Z,22.79
2018-06-15T17:08:43.166Z,18.52
2018-06-15T17:11:12.962Z,18.22
2018-06-15T17:13:41.830Z,21.23
2018-06-15T17:16:15.638Z,21.71
2018-06-15T17:18:48.018Z,21.95
2018-06-15T17:21:19.561Z,19.09
2018-06-15T17:23:50.894Z,19.58
2018-06-15T17:31:51.885Z,26.27
2018-06-15T17:39:50.491Z,29.00
2018-06-15T17:42:20.119Z,30.10
2018-06-15T17:44:50.532Z,30.85
2018-06-15T17:47:20.072Z,31.85
2018-06-15T17:49:54.668Z,30.71
2018-06-15T17:52:23.884Z,33.05
2018-06-15T17:54:52.831Z,33.69
2018-06-15T17:57:23.055Z,34.07
2018-06-15T17:59:55.264Z,34.72
2018-06-15T18:02:27.024Z,35.50
2018-06-15T18:04:58.698Z,34.23
2018-06-15T18:07:30.350Z,36.16
2018-06-15T18:10:04.435Z,36.97
2018-06-15T18:12:33.592Z,37.94
2018-06-15T18:15:02.580Z,38.57
2018-06-15T18:17:31.972Z,39.28
2018-06-15T18:20:01.493Z,39.79
2018-06-15T18:22:30.349Z,40.38
2018-06-15T18:25:02.164Z,40.48
2018-06-15T18:27:32.189Z,40.62
2018-06-15T18:30:01.602Z,40.81
2018-06-15T18:32:31.115Z,40.80
2018-06-15T18:35:06.735Z,38.68
2018-06-15T18:37:35.846Z,40.21
2018-06-15T18:40:06.068Z,40.89
2018-06-15T18:42:35.461Z,41.61
2018-06-15T18:45:09.288Z,42.16
2018-06-15T18:47:44.635Z,42.46
2018-06-15T18:50:20.140Z,42.78
2018-06-15T18:52:53.836Z,43.35
2018-06-15T18:55:25.309Z,43.54
2018-06-15T18:57:58.016Z,42.95
2018-06-15T19:00:30.813Z,43.37
2018-06-15T19:03:02.253Z,43.86
2018-06-15T19:05:32.373Z,44.46
2018-06-15T19:08:01.770Z,44.58
2018-06-15T19:10:31.355Z,43.10
2018-06-15T19:13:00.992Z,44.32
2018-06-15T19:15:31.491Z,45.34
2018-06-15T19:18:00.659Z,46.07
2018-06-15T19:20:33.745Z,46.14
2018-06-15T19:23:03.280Z,46.16
2018-06-15T19:25:33.610Z,46.75
2018-06-15T19:28:05.167Z,47.10
2018-06-15T19:30:34.232Z,48.14
2018-06-15T19:33:03.925Z,47.10
2018-06-15T19:35:32.968Z,48.38
2018-06-15T19:38:03.398Z,49.07
2018-06-15T19:40:32.487Z,49.77
2018-06-15T19:43:01.603Z,49.86
2018-06-15T19:45:33.078Z,49.79
2018-06-15T19:48:03.185Z,50.66
2018-06-15T19:50:34.920Z,50.52
2018-06-15T19:53:03.960Z,50.44
2018-06-15T19:55:35.612Z,51.23
2018-06-15T19:58:05.864Z,51.31
2018-06-15T20:00:39.241Z,51.78
2018-06-15T20:03:08.976Z,52.25
2018-06-15T20:05:38.522Z,52.43
2018-06-15T20:08:09.289Z,52.41
2018-06-15T20:10:38.629Z,52.41
2018-06-15T20:13:07.805Z,52.66
2018-06-15T20:15:37.482Z,52.79
2018-06-15T20:18:07.998Z,53.14
2018-06-15T20:20:38.549Z,53.15
2018-06-15T20:23:08.157Z,53.54
2018-06-15T20:25:55.004Z,53.84
2018-06-15T20:28:25.255Z,53.57
2018-06-15T20:30:59.467Z,53.90
2018-06-15T20:33:30.568Z,54.11
2018-06-15T20:36:00.268Z,54.85
2018-06-15T20:38:33.694Z,54.74
2018-06-15T20:41:06.520Z,53.94
2018-06-15T20:43:35.792Z,55.42
2018-06-15T20:46:06.337Z,55.54
2018-06-15T20:51:25.083Z,56.10
2018-06-15T20:53:56.602Z,56.17
2018-06-15T20:56:26.185Z,56.12
2018-06-15T20:58:55.760Z,56.54
2018-06-15T21:01:27.086Z,57.11
2018-06-15T21:04:07.729Z,56.84
2018-06-15T21:06:43.252Z,56.78
2018-06-15T21:09:10.475Z,56.57
2018-06-15T21:11:41.467Z,56.65
2018-06-15T21:14:10.705Z,56.94
2018-06-15T21:16:42.645Z,56.97
2018-06-15T21:19:14.466Z,55.66
2018-06-15T21:21:43.708Z,56.75
2018-06-15T21:24:13.147Z,57.01
2018-06-15T21:26:42.018Z,57.30
2018-06-15T21:29:19.376Z,57.79
2018-06-15T21:31:48.128Z,58.08
2018-06-15T21:34:18.061Z,58.23
2018-06-15T21:36:51.761Z,57.28
2018-06-15T21:39:21.113Z,57.03
2018-06-15T21:41:49.965Z,58.62
2018-06-15T21:44:18.648Z,58.59
2018-06-15T21:46:47.451Z,58.44
2018-06-15T21:49:16.181Z,58.18
2018-06-15T21:51:48.392Z,58.30
2018-06-15T21:54:19.500Z,57.13
2018-06-15T21:56:53.373Z,58.32
2018-06-15T21:59:23.814Z,57.34
2018-06-15T22:01:55.479Z,58.32
2018-06-15T22:04:24.404Z,58.86
2018-06-15T22:06:53.275Z,58.73
2018-06-15T22:09:22.126Z,57.37
2018-06-15T22:11:50.994Z,58.58
2018-06-15T22:14:19.707Z,58.82
2018-06-15T22:16:48.605Z,59.19
2018-06-15T22:19:17.401Z,59.51
2018-06-15T22:21:46.230Z,59.26
2018-06-15T22:24:20.151Z,58.27
2018-06-15T22:26:50.955Z,59.28
2018-06-15T22:29:31.277Z,59.46
2018-06-15T22:32:00.081Z,59.28
2018-06-15T22:34:28.824Z,59.25
2018-06-15T22:36:57.768Z,59.20
2018-06-15T22:39:26.535Z,59.53
2018-06-15T22:41:55.417Z,59.70
2018-06-15T22:44:24.260Z,59.54
2018-06-15T22:46:53.030Z,59.45
2018-06-15T22:49:21.766Z,59.85
2018-06-15T22:51:50.513Z,59.86
2018-06-15T22:54:19.571Z,59.67
2018-06-15T22:56:48.481Z,59.54
2018-06-15T22:59:17.328Z,59.38
2018-06-15T23:01:46.126Z,58.29
2018-06-15T23:04:14.993Z,59.54
2018-06-15T23:06:43.778Z,59.86
2018-06-15T23:09:12.869Z,59.86
2018-06-15T23:11:41.682Z,59.71
2018-06-15T23:14:10.478Z,60.03
2018-06-15T23:16:39.338Z,58.43
2018-06-15T23:19:08.110Z,59.54
2018-06-15T23:21:36.848Z,59.92
2018-06-15T23:24:05.900Z,59.69
2018-06-15T23:26:34.662Z,59.83
2018-06-15T23:29:03.390Z,59.94
2018-06-15T23:31:32.382Z,60.16
2018-06-15T23:34:01.181Z,60.32
2018-06-15T23:36:30.198Z,58.36
2018-06-15T23:38:59.353Z,59.79
2018-06-15T23:41:28.552Z,60.04
2018-06-15T23:43:57.797Z,60.49
2018-06-15T23:46:27.170Z,60.38
2018-06-15T23:48:56.340Z,61.29
2018-06-15T23:51:25.654Z,61.37
2018-06-15T23:53:55.218Z,61.08
2018-06-15T23:56:24.120Z,60.94
2018-06-15T23:58:53.092Z,61.26
